Greenville Downtown Airport
KGMU : now visible

Airfield :











YOU CAN JOIN US ON...

 
LOGIN :

Register | Disclaimer

   EN    FR    IT 

 









Legend :    VFR   Marginal VFR   IFR   Intensive IFR   Very Intensive IFR
Visi :
Ceiling :
>= 8 km
>= 3000ft
5 to 8 km
1000 to 3000 ft
1500m to 5 km
500 to 1000 ft
800 to 1500m
200 to 500 ft
< 800m
< 200 ft
Symbols :   Thunderstorms  Fog  Heavy snow  Heavy precipitations  Wind > 20 kt







- Airport Elevation : 1048 ft


KGMU - Greenville Downtown

CURRENT METAR :
  • 171153Z 23003KT 10SM CLR 26/22 A3011 RMK AO2 SLP182 T02610222 10272 20239 50002

EXPIRED METARs :
  • 171053Z 19003KT 10SM CLR 24/22 A3011 RMK AO2 SLP183 T02440222
  • 170953Z AUTO 00000KT 10SM CLR 24/22 A3011 RMK AO2 SLP182 T02440222

TAF KGMU
Valid from the 17 at 12:00 until the 18 at 12:00 UTC


171123Z 1712/1812 25005KT P6SM FEW250
FM171600 24012G18KT P6SM SCT250
FM172300 26009KT P6SM BKN090
PROB30 1723/1802 4SM -TSRA OVC025CB
FM180400 24005KT P6SM SCT100 BKN250
KZTL FIR / North America



MET'MAP, your aeronautical weather chart ! - Copyright ORBIFLY December 2007 - Disclaimer

ORBIFLY MET'MAP TEAM :

Programming & Development : Alexandra Zaïnal
Concept & Development : Baudouin d'Aumeries
Co-Development & Prog : Marc-Olivier Méhu
Technical & hardware support : Manuel Goepfert

Contact : metmap@orbifly.com




SOURCES & CREDITS :

   NOAA       Earth
Advisory